TimeCDT,TemperatureF,Dew PointF,Humidity,Sea Level PressureIn,VisibilityMPH,Wind Direction,Wind SpeedMPH,Gust SpeedMPH,PrecipitationIn,Events,Conditions,WindDirDegrees,DateUTC
12:54 AM,64.0,60.1,87,30.09,7.0,North,-9999.0,-,N/A,,Clear,0,2013-08-20 05:54:00
1:54 AM,63.0,60.1,90,30.09,6.0,Calm,Calm,-,N/A,,Clear,0,2013-08-20 06:54:00
2:54 AM,62.1,59.0,90,30.08,5.0,Calm,Calm,-,N/A,,Clear,0,2013-08-20 07:54:00
3:54 AM,61.0,57.0,87,30.08,6.0,Calm,Calm,-,N/A,,Clear,0,2013-08-20 08:54:00
4:54 AM,60.1,57.0,90,30.08,4.0,Calm,Calm,-,N/A,,Clear,0,2013-08-20 09:54:00
5:54 AM,57.9,55.9,93,30.10,4.0,Calm,Calm,-,N/A,,Clear,0,2013-08-20 10:54:00
6:52 AM,59.0,55.4,88,30.13,2.5,Calm,Calm,-,N/A,,Clear,0,2013-08-20 11:52:00
6:54 AM,59.0,55.9,90,30.12,2.5,Calm,Calm,-,N/A,,Clear,0,2013-08-20 11:54:00
7:02 AM,60.8,57.2,88,30.13,3.0,Calm,Calm,-,N/A,,Clear,0,2013-08-20 12:02:00
7:54 AM,68.0,62.1,81,30.13,3.0,Calm,Calm,-,N/A,,Haze,0,2013-08-20 12:54:00
8:54 AM,73.9,63.0,68,30.14,8.0,South,3.5,-,N/A,,Clear,180,2013-08-20 13:54:00
9:54 AM,78.1,64.9,64,30.13,7.0,Calm,Calm,-,N/A,,Clear,0,2013-08-20 14:54:00
10:54 AM,81.0,64.9,58,30.14,10.0,SSW,5.8,-,N/A,,Mostly Cloudy,200,2013-08-20 15:54:00
11:54 AM,81.0,64.0,56,30.13,10.0,South,4.6,-,N/A,,Partly Cloudy,170,2013-08-20 16:54:00
12:54 PM,84.0,62.1,47,30.11,10.0,South,8.1,-,N/A,,Partly Cloudy,180,2013-08-20 17:54:00
1:54 PM,82.9,63.0,51,30.10,10.0,Variable,4.6,-,N/A,,Mostly Cloudy,0,2013-08-20 18:54:00
2:54 PM,86.0,62.1,44,30.08,10.0,SSW,9.2,-,N/A,,Mostly Cloudy,210,2013-08-20 19:54:00
3:54 PM,82.9,64.0,53,30.07,10.0,SSE,5.8,-,N/A,,Mostly Cloudy,150,2013-08-20 20:54:00
4:54 PM,84.9,63.0,48,30.06,10.0,SW,5.8,-,N/A,,Clear,220,2013-08-20 21:54:00
5:54 PM,84.0,63.0,49,30.06,10.0,South,5.8,-,N/A,,Clear,180,2013-08-20 22:54:00
6:54 PM,82.0,64.9,56,30.06,10.0,South,5.8,-,N/A,,Clear,180,2013-08-20 23:54:00
7:54 PM,79.0,64.0,60,30.06,10.0,South,3.5,-,N/A,,Clear,170,2013-08-21 00:54:00
8:54 PM,72.0,64.9,78,30.07,10.0,SSE,3.5,-,N/A,,Clear,150,2013-08-21 01:54:00
9:54 PM,69.1,64.0,84,30.08,10.0,Calm,Calm,-,N/A,,Clear,0,2013-08-21 02:54:00
10:54 PM,69.1,66.0,90,30.09,8.0,Calm,Calm,-,N/A,,Clear,0,2013-08-21 03:54:00
11:54 PM,68.0,64.0,87,30.08,8.0,Calm,Calm,-,N/A,,Clear,0,2013-08-21 04:54:00